greek

WEATHER INFORMATION

english


LGTT 191400Z 03015KT 9999 FEW030 29/09 Q1016
TAF LGTT 191000Z 1912/1921 04012KT 9999 FEW020 TEMPO 1912/1918 04015G25KT

 Print LGTT local weather
 EMY AVIATION
 EMY LGTT
 Forecast LGTT
 EMY LGMG
 EMY LGEL
 EMY LGTG
 EMY LGAV
 EMY LGAT
 Latest METAR Reports (OGIMET)
 Latest TAF Reports (OGIMET)
 Greece Forecast
 www.windyty.com
 www.meteo.gr
 SAT 24h
 UK Met Office
 www.kifissiameteo.gr
 forecast.uoa.gr
 www.ntua.gr/weather/
 www.autorouter.eu/gramet
 http://www.jetplan.com/jeppesen/

Call 210-3533689 to get aviation-weather info for Greece.